Overview Statistics Trail Chart Weather Telemetry Raw packets
 

This is the latest recevied weather packets stored in our database for station/object VK5GR-12. If no packets are shown the sender has not sent any weather packets the latest 10 day(s).

<< 1 2 3 4 5 6 7 >>
Time Temp. Humidity Pressure Rain* Wind** Luminosity Snow
1788602207 12.22° C 86% 1018.8 hPa 0 mm - 0 W/m² -
1788601303 12.78° C 79% 1018.6 hPa 0 mm - 0 W/m² -
1788600400 12.78° C 80% 1018.5 hPa 0 mm - 0 W/m² -
1788599495 12.78° C 78% 1018.1 hPa 0 mm - 0 W/m² -
1788598596 13.33° C 76% 1018.1 hPa 0 mm - 0 W/m² -
1788597691 13.89° C 72% 1017.8 hPa 0 mm - 0 W/m² -
1788596789 13.89° C 71% 1017.4 hPa 0 mm - 2 W/m² -
1788595885 13.89° C 69% 1016.8 hPa 0 mm - 6 W/m² -
1788594986 13.89° C 72% 1016.2 hPa 0 mm - 11 W/m² -
1788594080 13.89° C 70% 1016.1 hPa 0 mm - 38 W/m² -
1788593176 14.44° C 69% 1015.8 hPa 0 mm - 101 W/m² -
1788592274 15° C 67% 1015.6 hPa 0 mm - 150 W/m² -
1788591375 14.44° C 70% 1015.5 hPa 0 mm - 63 W/m² -
1788590472 14.44° C 69% 1015.4 hPa 0 mm - 168 W/m² -
1788589569 14.44° C 69% 1015.3 hPa 0 mm - 148 W/m² -
1788588668 15° C 68% 1015.3 hPa 0 mm - 345 W/m² -
1788587764 13.89° C 73% 1015.1 hPa 0 mm - 167 W/m² -
1788586863 15° C 67% 1014.7 hPa 0 mm - 113 W/m² -
1788585963 15° C 63% 1014.7 hPa 0 mm - 537 W/m² -
1788585061 15° C 69% 1014.5 hPa 0 mm - 240 W/m² -
1788584160 13.89° C 72% 1014.7 hPa 0 mm - 212 W/m² -
1788583256 14.44° C 70% 1014.4 hPa 0 mm - 312 W/m² -
1788582355 15° C 68% 1014 hPa 0 mm - 165 W/m² -
1788581453 15° C 65% 1013.8 hPa 0 mm - 569 W/m² -
1788580552 15° C 65% 1013.9 hPa 0 mm - 565 W/m² -

* Rain latest hour (hover to see other rain measurements)
** Current wind speed in m/s (hover to see current wind gust speed)